Bear Creek, Minnesota
Current Conditions -  °F | °C
As of 4:13 PM on Sunday 25 Jan 2015 (Local Time) from KBJI Reporting Station
Overcast Overcast  
Wind Chill: 21°   Ceiling: 5000
Heat Index: 27°   Visibility: 10mi
Dew Point: 17°   Wind: 6mph
Humidity: 66%   Direction: 180°S
Pressure: 29.94"   Gusts: NA
Location:  47.4609°N, 95.2384°W
Report Text: KBJI 252213Z AUTO 18005KT 10SM OVC050 M03/M08 A2994 RMK AO2 T10261081
Loading
Personal Weather Stations






























Interactive Weather Map New forecast layout! Learn more

10-Day Weather Forecast

Advertisements
Track Severe Weather on mobile